< < Back
Terminal Aerodrome Forecast


Current Version              Previous Versions:   1  2  3  4  5  6  7  8  9  

Terminal Aerodrome Forecast

037
FTUS42 KCAE 190500
TAFAGS
TAF
KAGS 190532Z 1906/2006 00000KT 5SM BR BKN200
      TEMPO 1906/1909 2SM BR
     FM190900 VRB03KT 3SM BR SCT025 BKN150
      TEMPO 1909/1911 2SM BR SCT003
     FM191100 VRB03KT 2SM BR SCT003 BKN025
     FM191500 09004KT P6SM BKN035
     FM191900 10005KT P6SM SCT035
     FM200000 VRB04KT P6SM SCT150=



Latest METAR

504
SAUS70 KWBC 190500 RRB
MTRAGS
METAR KAGS 190453Z AUTO 00000KT 3/4SM BR VV002 19/19 A2999 RMK AO2
SLP154 T01940189 402940183 RVRNO


USA.gov is the U.S. government's official web portal to all federal, state and local government web resources and services.